Latest Weather Observations for St Kilda Harbour RMYS

IDV60901

Issued at 8:31 pm EST Wednesday 5 August 2015 (issued every 10 minutes, with the page automatically refreshed every 10 minutes)

About weather observations | Map of Melbourne area stations | Latest observations for Melbourne area | Other Formats
Station Details ID: 086220 Name: ST KILDA HARBOUR - RMYS Lat: -37.86 Lon: 144.96 Height: 6.4 m
Data from the previous 72 hours. | See also: Recent months for locations in Victoria
Date/Time
EST
Tmp

°C
App
Tmp
°C
Dew
Point
°C
Rel
Hum
%
Delta-T

°C
Wind Press
QNH
hPa
Press
MSL
hPa
Rain
since
9 am
mm
Dir
 
Spd
km/h
Gust
km/h
Spd
kts
Gust
kts
05/08:30pm - - - - - WNW 20 26 11 14 - - -
05/08:00pm - - - - - W 24 30 13 16 - - -
05/07:30pm - - - - - W 22 28 12 15 - - -
05/07:00pm - - - - - W 26 30 14 16 - - -
05/06:30pm - - - - - W 24 28 13 15 - - -
05/06:00pm - - - - - WSW 26 30 14 16 - - -
05/05:30pm - - - - - WSW 20 24 11 13 - - -
05/05:00pm - - - - - WSW 20 24 11 13 - - -
05/04:30pm - - - - - SW 32 37 17 20 - - -
05/04:03pm - - - - - SW 30 52 16 28 - - -
05/04:00pm - - - - - SSW 28 33 15 18 - - -
05/03:30pm - - - - - SSW 28 35 15 19 - - -
05/03:00pm - - - - - SSW 26 30 14 16 - - -
05/02:30pm - - - - - SSW 24 28 13 15 - - -
05/02:00pm - - - - - WSW 28 32 15 17 - - -
05/01:30pm - - - - - SW 20 24 11 13 - - -
05/01:00pm - - - - - SSW 20 24 11 13 - - -
05/12:30pm - - - - - SW 20 24 11 13 - - -
05/12:00pm - - - - - SSW 39 56 21 30 - - -
05/11:55am - - - - - SW 35 56 19 30 - - -
05/11:30am - - - - - SW 32 37 17 20 - - -
05/11:00am - - - - - WSW 32 39 17 21 - - -
05/10:30am - - - - - WSW 32 37 17 20 - - -
05/10:00am - - - - - WSW 33 39 18 21 - - -
05/09:30am - - - - - WSW 32 39 17 21 - - -
05/09:00am - - - - - W 26 30 14 16 - - -
05/08:30am - - - - - W 30 37 16 20 - - -
05/08:00am - - - - - WNW 24 28 13 15 - - -
05/07:30am - - - - - WNW 24 28 13 15 - - -
05/07:00am - - - - - WNW 28 35 15 19 - - -
05/06:30am - - - - - WNW 30 35 16 19 - - -
05/06:00am - - - - - W 30 37 16 20 - - -
05/05:30am - - - - - W 41 48 22 26 - - -
05/05:00am - - - - - W 37 48 20 26 - - -
05/04:30am - - - - - WNW 37 46 20 25 - - -
05/04:00am - - - - - WNW 35 50 19 27 - - -
05/03:30am - - - - - NW 35 43 19 23 - - -
05/03:00am - - - - - NW 32 43 17 23 - - -
05/02:30am - - - - - NW 33 44 18 24 - - -
05/02:00am - - - - - NW 32 43 17 23 - - -
05/01:30am - - - - - NW 37 54 20 29 - - -
05/01:00am - - - - - NW 28 39 15 21 - - -
05/12:30am - - - - - NW 22 30 12 16 - - -
05/12:00am - - - - - NW 28 33 15 18 - - -
 
Date/Time
EST
Tmp

°C
App
Tmp
°C
Dew
Point
°C
Rel
Hum
%
Delta-T

°C
Wind Press
QNH
hPa
Press
MSL
hPa
Rain
since
9 am
mm
Dir
 
Spd
km/h
Gust
km/h
Spd
kts
Gust
kts
04/11:30pm - - - - - NNW 28 37 15 20 - - -
04/11:00pm - - - - - NNW 30 41 16 22 - - -
04/10:30pm - - - - - NNW 28 39 15 21 - - -
04/10:00pm - - - - - NNW 28 41 15 22 - - -
04/09:30pm - - - - - NNW 26 37 14 20 - - -
04/09:00pm - - - - - NNW 24 39 13 21 - - -
04/08:30pm - - - - - NNW 30 41 16 22 - - -
04/08:00pm - - - - - N 32 46 17 25 - - -
04/07:30pm - - - - - NNW 32 44 17 24 - - -
04/07:00pm - - - - - NNW 32 43 17 23 - - -
04/06:30pm - - - - - NNW 26 41 14 22 - - -
04/06:00pm - - - - - NNW 24 32 13 17 - - -
04/05:30pm - - - - - NW 26 39 14 21 - - -
04/05:00pm - - - - - NW 24 35 13 19 - - -
04/04:30pm - - - - - NW 28 41 15 22 - - -
04/04:00pm - - - - - NW 30 35 16 19 - - -
04/03:30pm - - - - - NW 28 35 15 19 - - -
04/03:00pm - - - - - WNW 32 41 17 22 - - -
04/02:30pm - - - - - WNW 33 39 18 21 - - -
04/02:00pm - - - - - WNW 28 35 15 19 - - -
04/01:30pm - - - - - NW 24 30 13 16 - - -
04/01:00pm - - - - - WNW 24 32 13 17 - - -
04/12:30pm - - - - - WNW 26 35 14 19 - - -
04/12:00pm - - - - - WNW 24 32 13 17 - - -
04/11:30am - - - - - WNW 32 39 17 21 - - -
04/11:00am - - - - - WNW 26 33 14 18 - - -
04/10:30am - - - - - WNW 26 33 14 18 - - -
04/10:00am - - - - - WNW 24 33 13 18 - - -
04/09:30am - - - - - WNW 26 33 14 18 - - -
04/09:00am - - - - - NNW 9 15 5 8 - - -
04/08:30am - - - - - NNW 9 15 5 8 - - -
04/08:00am - - - - - NNW 7 11 4 6 - - -
04/07:30am - - - - - NNW 13 17 7 9 - - -
04/07:00am - - - - - NW 11 17 6 9 - - -
04/06:30am - - - - - NNW 9 13 5 7 - - -
04/06:00am - - - - - NNW 9 13 5 7 - - -
04/05:30am - - - - - NW 11 17 6 9 - - -
04/05:00am - - - - - NNW 11 17 6 9 - - -
04/04:30am - - - - - NNW 13 19 7 10 - - -
04/04:00am - - - - - NNW 7 11 4 6 - - -
04/03:30am - - - - - NW 17 20 9 11 - - -
04/03:00am - - - - - NW 17 24 9 13 - - -
04/02:30am - - - - - WNW 19 24 10 13 - - -
04/02:00am - - - - - WNW 20 24 11 13 - - -
04/01:30am - - - - - WNW 15 20 8 11 - - -
04/01:00am - - - - - WNW 13 17 7 9 - - -
04/12:30am - - - - - WNW 17 20 9 11 - - -
04/12:00am - - - - - WNW 13 19 7 10 - - -
 
Date/Time
EST
Tmp

°C
App
Tmp
°C
Dew
Point
°C
Rel
Hum
%
Delta-T

°C
Wind Press
QNH
hPa
Press
MSL
hPa
Rain
since
9 am
mm
Dir
 
Spd
km/h
Gust
km/h
Spd
kts
Gust
kts
03/11:30pm - - - - - NW 13 17 7 9 - - -
03/11:00pm - - - - - NNW 11 15 6 8 - - -
03/10:30pm - - - - - W 19 22 10 12 - - -
03/10:00pm - - - - - WNW 20 24 11 13 - - -
03/09:30pm - - - - - WNW 19 26 10 14 - - -
03/09:00pm - - - - - W 17 20 9 11 - - -
03/08:30pm - - - - - WSW 22 28 12 15 - - -
03/08:00pm - - - - - WSW 26 32 14 17 - - -
03/07:30pm - - - - - WSW 24 28 13 15 - - -
03/07:00pm - - - - - WSW 26 32 14 17 - - -
03/06:30pm - - - - - WSW 32 39 17 21 - - -
03/06:00pm - - - - - WSW 26 32 14 17 - - -
03/05:30pm - - - - - W 22 28 12 15 - - -
03/05:00pm - - - - - WSW 37 50 20 27 - - -
03/04:58pm - - - - - WSW 33 50 18 27 - - -
03/04:30pm - - - - - SW 26 30 14 16 - - -
03/04:00pm - - - - - SSW 30 35 16 19 - - -
03/03:30pm - - - - - SSW 30 35 16 19 - - -
03/03:00pm - - - - - WSW 20 26 11 14 - - -
03/02:30pm - - - - - SW 33 39 18 21 - - -
03/02:10pm - - - - - SSW 33 52 18 28 - - -
03/02:00pm - - - - - S 28 32 15 17 - - -
03/01:30pm - - - - - SW 26 32 14 17 - - -
03/01:11pm - - - - - SSW 32 50 17 27 - - -
03/01:00pm - - - - - SSW 43 50 23 27 - - -
03/12:47pm - - - - - SW 35 46 19 25 - - -
03/12:30pm - - - - - SW 33 39 18 21 - - -
03/12:00pm - - - - - SW 41 50 22 27 - - -
03/11:30am - - - - - WSW 37 48 20 26 - - -
03/11:00am - - - - - WSW 33 43 18 23 - - -
03/10:30am - - - - - WSW 39 44 21 24 - - -
03/10:00am - - - - - WSW 32 44 17 24 - - -
03/09:30am - - - - - W 33 44 18 24 - - -
03/09:00am - - - - - W 33 39 18 21 - - -
03/08:30am - - - - - W 43 57 23 31 - - -
03/08:24am - - - - - W 33 56 18 30 - - -
03/08:00am - - - - - W 30 37 16 20 - - -
03/07:30am - - - - - W 30 37 16 20 - - -
03/07:00am - - - - - W 35 44 19 24 - - -
03/06:32am - - - - - WSW 48 67 26 36 - - -
03/06:30am - - - - - WSW 50 67 27 36 - - -
03/06:00am - - - - - W 48 67 26 36 - - -
03/05:46am - - - - - W 41 63 22 34 - - -
03/05:30am - - - - - WNW 32 43 17 23 - - -
03/05:00am - - - - - WNW 35 44 19 24 - - -
03/04:30am - - - - - WNW 30 37 16 20 - - -
03/04:00am - - - - - W 39 50 21 27 - - -
03/03:43am - - - - - W 41 59 22 32 - - -
03/03:30am - - - - - WNW 41 52 22 28 - - -
03/03:00am - - - - - WNW 39 50 21 27 - - -
03/02:30am - - - - - NW 39 48 21 26 - - -
03/02:00am - - - - - NW 37 48 20 26 - - -
03/01:39am - - - - - NW 37 56 20 30 - - -
03/01:30am - - - - - NW 37 46 20 25 - - -
03/01:00am - - - - - NW 37 46 20 25 - - -
03/12:30am - - - - - NW 39 50 21 27 - - -
03/12:00am - - - - - NW 35 48 19 26 - - -
 
Date/Time
EST
Tmp

°C
App
Tmp
°C
Dew
Point
°C
Rel
Hum
%
Delta-T

°C
Wind Press
QNH
hPa
Press
MSL
hPa
Rain
since
9 am
mm
Dir
 
Spd
km/h
Gust
km/h
Spd
kts
Gust
kts
02/11:30pm - - - - - NW 28 43 15 23 - - -
02/11:00pm - - - - - NW 33 41 18 22 - - -
02/10:30pm - - - - - NW 30 41 16 22 - - -
02/10:00pm - - - - - WNW 32 39 17 21 - - -
02/09:30pm - - - - - NW 33 43 18 23 - - -
02/09:00pm - - - - - WNW 28 37 15 20 - - -

Latest Capital City Observations: Canberra | Sydney | Melbourne | Brisbane | Adelaide | Perth | Hobart | Darwin

Other Formats:

Comma delimited format used in spreadsheet applications
http://www.bom.gov.au/fwo/IDV60901/IDV60901.95864.axf

JavaScript Object Notation format (JSON) in row-major order
http://www.bom.gov.au/fwo/IDV60901/IDV60901.95864.json